DEFOG EDXW-ZZZZ
Flight info
| Callsign | DEFOG |
|---|---|
| Flight time | N/A |
| Altitude | |
| Route | |
| Aircraft | L39 |
Departure
| Time | 2026-04-25 18:33 |
|---|---|
| Airport | Westerland Sylt Airport (EDXW) |
Arrival
| Time | N/A |
|---|---|
| Airport | ZZZZ |
| Time | Latitude | Longitude | Altitude | Speed | Heading |
|---|---|---|---|---|---|
| 2026-04-25 18:24 | 54.91110 | 8.32743 | 37 ft | 0 kts | 232° |
| 2026-04-25 18:27 | 54.91109 | 8.32742 | 37 ft | 3 kts | 232° |
| 2026-04-25 18:27 | 54.91084 | 8.32765 | 38 ft | 0 kts | 110° |
| 2026-04-25 18:28 | 54.91076 | 8.32803 | 38 ft | 10 kts | 110° |
| 2026-04-25 18:28 | 54.91042 | 8.32938 | 38 ft | 16 kts | 120° |
| 2026-04-25 18:28 | 54.90961 | 8.33090 | 37 ft | 18 kts | 140° |
| 2026-04-25 18:29 | 54.90691 | 8.33230 | 32 ft | 15 kts | 176° |
| 2026-04-25 18:29 | 54.90586 | 8.33245 | 30 ft | 17 kts | 176° |
| 2026-04-25 18:30 | 54.90294 | 8.33566 | 26 ft | 19 kts | 115° |
| 2026-04-25 18:30 | 54.90259 | 8.33771 | 26 ft | 17 kts | 99° |
| 2026-04-25 18:30 | 54.90241 | 8.33969 | 26 ft | 19 kts | 98° |
| 2026-04-25 18:30 | 54.90245 | 8.34224 | 27 ft | 18 kts | 78° |
| 2026-04-25 18:31 | 54.90286 | 8.34403 | 29 ft | 14 kts | 58° |
| 2026-04-25 18:31 | 54.90352 | 8.34546 | 33 ft | 18 kts | 44° |
| 2026-04-25 18:31 | 54.90435 | 8.34681 | 36 ft | 15 kts | 42° |
| 2026-04-25 18:31 | 54.90516 | 8.34810 | 38 ft | 20 kts | 41° |
| 2026-04-25 18:32 | 54.90611 | 8.34922 | 38 ft | 13 kts | 339° |
| 2026-04-25 18:32 | 54.90623 | 8.34911 | 37 ft | 0 kts | 325° |
| 2026-04-25 18:32 | 54.90883 | 8.34599 | 38 ft | 96 kts | 323° |
| 2026-04-25 18:32 | 54.91557 | 8.33763 | 328 ft | 141 kts | 325° |
| 2026-04-25 18:33 | 54.92489 | 8.32606 | 712 ft | 193 kts | 324° |
| 2026-04-25 18:33 | 54.93790 | 8.31439 | 1246 ft | 228 kts | 349° |
| 2026-04-25 18:33 | 54.95460 | 8.32130 | 1719 ft | 265 kts | 15° |
| 2026-04-25 18:33 | 54.97292 | 8.33360 | 1848 ft | 303 kts | 17° |
| 2026-04-25 18:34 | 54.99367 | 8.34715 | 1776 ft | 327 kts | 16° |
| 2026-04-25 18:34 | 55.01581 | 8.36107 | 1459 ft | 345 kts | 15° |
| 2026-04-25 18:34 | 55.03827 | 8.37537 | 1421 ft | 333 kts | 15° |
| 2026-04-25 18:34 | 55.05961 | 8.37677 | 1401 ft | 298 kts | 341° |
| 2026-04-25 18:35 | 55.07626 | 8.35780 | 1505 ft | 280 kts | 322° |
| 2026-04-25 18:35 | 55.09131 | 8.33689 | 1545 ft | 273 kts | 322° |
| 2026-04-25 18:35 | 55.10575 | 8.31652 | 1897 ft | 256 kts | 322° |
| 2026-04-25 18:35 | 55.11895 | 8.29789 | 2695 ft | 238 kts | 323° |
| 2026-04-25 18:36 | 55.13174 | 8.27932 | 2978 ft | 243 kts | 323° |
| 2026-04-25 18:36 | 55.14338 | 8.25562 | 2765 ft | 288 kts | 300° |
| 2026-04-25 18:36 | 55.14574 | 8.21884 | 2956 ft | 325 kts | 266° |
| 2026-04-25 18:36 | 55.13567 | 8.18191 | 3347 ft | 354 kts | 236° |
| 2026-04-25 18:37 | 55.11812 | 8.15117 | 3724 ft | 368 kts | 229° |
| 2026-04-25 18:37 | 55.09958 | 8.12032 | 4326 ft | 371 kts | 229° |
| 2026-04-25 18:37 | 55.08066 | 8.08881 | 4605 ft | 381 kts | 229° |
| 2026-04-25 18:37 | 55.06147 | 8.05620 | 4889 ft | 386 kts | 230° |
| 2026-04-25 18:38 | 55.04209 | 8.02326 | 5131 ft | 392 kts | 229° |
| 2026-04-25 18:38 | 55.02200 | 7.99038 | 5129 ft | 401 kts | 228° |
| 2026-04-25 18:38 | 55.00131 | 7.95652 | 4600 ft | 414 kts | 228° |
| 2026-04-25 18:38 | 54.98056 | 7.92176 | 4321 ft | 413 kts | 229° |
| 2026-04-25 18:39 | 54.96011 | 7.88700 | 4266 ft | 409 kts | 229° |
| 2026-04-25 18:39 | 54.93981 | 7.85256 | 4183 ft | 408 kts | 229° |
| 2026-04-25 18:39 | 54.92549 | 7.81232 | 4325 ft | 381 kts | 259° |
| 2026-04-25 18:39 | 54.92535 | 7.76840 | 4731 ft | 357 kts | 288° |
| 2026-04-25 18:40 | 54.93789 | 7.73233 | 4728 ft | 351 kts | 320° |
| 2026-04-25 18:40 | 54.95980 | 7.71770 | 5203 ft | 341 kts | 355° |
| 2026-04-25 18:40 | 54.98253 | 7.73038 | 5275 ft | 363 kts | 33° |
| 2026-04-25 18:40 | 54.99447 | 7.77007 | 5261 ft | 393 kts | 78° |
| 2026-04-25 18:41 | 54.98754 | 7.81631 | 5454 ft | 409 kts | 121° |
| 2026-04-25 18:41 | 54.96553 | 7.84670 | 5884 ft | 411 kts | 158° |
| 2026-04-25 18:41 | 54.93828 | 7.86144 | 6297 ft | 415 kts | 165° |
| 2026-04-25 18:41 | 54.90928 | 7.87580 | 4763 ft | 450 kts | 165° |
| 2026-04-25 18:42 | 54.87869 | 7.89009 | 3577 ft | 455 kts | 166° |
| 2026-04-25 18:42 | 54.86876 | 7.89457 | 3335 ft | 453 kts | 166° |
| 2026-04-25 18:42 | 54.81944 | 7.91631 | 3334 ft | 425 kts | 166° |
| 2026-04-25 18:42 | 54.79076 | 7.92827 | 3375 ft | 423 kts | 167° |
| 2026-04-25 18:43 | 54.78956 | 7.92876 | 3380 ft | 422 kts | 167° |
| 2026-04-25 18:43 | 54.78920 | 7.92890 | 3383 ft | 422 kts | 167° |
| 2026-04-25 18:43 | 54.76068 | 7.94026 | 3593 ft | 417 kts | 167° |
| 2026-04-25 18:44 | 54.73261 | 7.95169 | 3877 ft | 414 kts | 167° |
| 2026-04-25 18:44 | 54.70453 | 7.96351 | 4026 ft | 415 kts | 167° |
| 2026-04-25 18:44 | 54.67643 | 7.97539 | 4195 ft | 415 kts | 167° |
| 2026-04-25 18:44 | 54.64822 | 7.98565 | 4411 ft | 411 kts | 180° |
| 2026-04-25 18:45 | 54.62302 | 7.96972 | 4584 ft | 389 kts | 225° |
| 2026-04-25 18:45 | 54.61222 | 7.92993 | 4359 ft | 366 kts | 274° |
| 2026-04-25 18:45 | 54.62255 | 7.89224 | 3839 ft | 356 kts | 322° |
| 2026-04-25 18:45 | 54.64495 | 7.88326 | 3755 ft | 307 kts | 7° |
| 2026-04-25 18:46 | 54.65853 | 7.90508 | 3522 ft | 265 kts | 65° |
| 2026-04-25 18:46 | 54.65951 | 7.93537 | 3064 ft | 242 kts | 87° |
| 2026-04-25 18:46 | 54.65798 | 7.96512 | 2984 ft | 259 kts | 88° |
| 2026-04-25 18:46 | 54.65704 | 7.99706 | 3132 ft | 273 kts | 86° |
| 2026-04-25 18:47 | 54.65596 | 8.03095 | 3295 ft | 299 kts | 87° |
| 2026-04-25 18:47 | 54.65492 | 8.06766 | 3267 ft | 326 kts | 86° |
| 2026-04-25 18:47 | 54.65421 | 8.10914 | 2979 ft | 362 kts | 85° |
| 2026-04-25 18:47 | 54.65885 | 8.15092 | 1864 ft | 346 kts | 58° |
| 2026-04-25 18:48 | 54.67089 | 8.18622 | 1515 ft | 333 kts | 52° |
| 2026-04-25 18:48 | 54.68354 | 8.21922 | 1232 ft | 332 kts | 51° |
| 2026-04-25 18:48 | 54.69635 | 8.25160 | 1201 ft | 319 kts | 49° |
| 2026-04-25 18:48 | 54.70927 | 8.28194 | 1312 ft | 308 kts | 45° |
| 2026-04-25 18:49 | 54.72545 | 8.30384 | 1296 ft | 288 kts | 20° |
| 2026-04-25 18:49 | 54.74409 | 8.31352 | 1319 ft | 271 kts | 5° |
| 2026-04-25 18:49 | 54.76247 | 8.31678 | 1440 ft | 260 kts | 1° |
| 2026-04-25 18:49 | 54.78007 | 8.31919 | 1571 ft | 243 kts | 360° |
| 2026-04-25 18:50 | 54.79708 | 8.32151 | 1643 ft | 241 kts | 0° |
| 2026-04-25 18:50 | 54.81215 | 8.32350 | 1622 ft | 201 kts | 359° |
| 2026-04-25 18:50 | 54.82529 | 8.32484 | 1611 ft | 179 kts | 358° |
| 2026-04-25 18:50 | 54.83365 | 8.32548 | 1633 ft | 183 kts | 359° |
| 2026-04-25 18:51 | 54.84505 | 8.33456 | 1660 ft | 185 kts | 40° |
| 2026-04-25 18:51 | 54.84887 | 8.34697 | 1468 ft | 165 kts | 56° |
| 2026-04-25 18:51 | 54.85431 | 8.36966 | 1231 ft | 151 kts | 52° |
| 2026-04-25 18:51 | 54.86156 | 8.37999 | 1137 ft | 132 kts | 8° |
| 2026-04-25 18:52 | 54.87019 | 8.38270 | 1017 ft | 123 kts | 358° |
| 2026-04-25 18:52 | 54.87854 | 8.38172 | 858 ft | 118 kts | 341° |
| 2026-04-25 18:52 | 54.88560 | 8.37490 | 678 ft | 117 kts | 323° |
| 2026-04-25 18:52 | 54.89198 | 8.36654 | 538 ft | 112 kts | 324° |
| 2026-04-25 18:53 | 54.89839 | 8.35879 | 294 ft | 103 kts | 325° |
| 2026-04-25 18:53 | 54.90430 | 8.35146 | 99 ft | 101 kts | 324° |
| 2026-04-25 18:53 | 54.90857 | 8.34619 | 37 ft | 46 kts | 322° |
| 2026-04-25 18:53 | 54.91002 | 8.34441 | 42 ft | 19 kts | 327° |
| 2026-04-25 18:54 | 54.91253 | 8.34126 | 42 ft | 15 kts | 323° |
| 2026-04-25 18:54 | 54.91307 | 8.34018 | 39 ft | 12 kts | 264° |
| 2026-04-25 18:54 | 54.91252 | 8.33837 | 34 ft | 23 kts | 241° |
| 2026-04-25 18:55 | 54.91170 | 8.33594 | 33 ft | 22 kts | 240° |
| 2026-04-25 18:55 | 54.91100 | 8.33389 | 34 ft | 17 kts | 241° |
| 2026-04-25 18:55 | 54.91036 | 8.33184 | 34 ft | 27 kts | 244° |
| 2026-04-25 18:55 | 54.91037 | 8.32955 | 38 ft | 14 kts | 311° |
| 2026-04-25 18:56 | 54.91115 | 8.32800 | 38 ft | 16 kts | 312° |
| 2026-04-25 18:56 | 54.91119 | 8.32745 | 37 ft | 0 kts | 222° |